sensor_id;sensor_type;location;lat;lon;timestamp;pressure;altitude;pressure_sealevel;temperature;humidity
65013;BME280;51715;39.432;-77.518;2023-08-30T00:00:31;98994.37;;;30.45;40.46
65013;BME280;51715;39.432;-77.518;2023-08-30T00:03:00;99000.00;;;30.48;40.33
65013;BME280;51715;39.432;-77.518;2023-08-30T00:05:28;99001.80;;;30.71;40.45
65013;BME280;51715;39.432;-77.518;2023-08-30T00:07:57;99010.24;;;30.50;40.39
65013;BME280;51715;39.432;-77.518;2023-08-30T00:10:27;99022.86;;;30.14;40.81
65013;BME280;51715;39.432;-77.518;2023-08-30T00:12:58;99028.22;;;30.64;40.71
65013;BME280;51715;39.432;-77.518;2023-08-30T00:15:28;99031.15;;;30.58;40.90
65013;BME280;51715;39.432;-77.518;2023-08-30T00:17:56;99031.61;;;30.56;41.03
65013;BME280;51715;39.432;-77.518;2023-08-30T00:20:25;99031.64;;;30.54;41.06
65013;BME280;51715;39.432;-77.518;2023-08-30T00:22:55;99032.06;;;30.56;40.95
65013;BME280;51715;39.432;-77.518;2023-08-30T00:25:24;99029.27;;;30.57;41.03
65013;BME280;51715;39.432;-77.518;2023-08-30T00:27:53;99032.78;;;30.34;41.14
65013;BME280;51715;39.432;-77.518;2023-08-30T00:30:21;99036.55;;;30.58;41.23
65013;BME280;51715;39.432;-77.518;2023-08-30T00:32:50;99040.36;;;30.35;41.14
65013;BME280;51715;39.432;-77.518;2023-08-30T00:35:19;99041.95;;;30.37;40.92
65013;BME280;51715;39.432;-77.518;2023-08-30T00:37:47;99044.99;;;30.37;41.07
65013;BME280;51715;39.432;-77.518;2023-08-30T00:40:15;99053.88;;;30.61;40.93
65013;BME280;51715;39.432;-77.518;2023-08-30T00:42:44;99055.60;;;30.37;41.10
65013;BME280;51715;39.432;-77.518;2023-08-30T00:45:12;99052.04;;;30.61;41.11
65013;BME280;51715;39.432;-77.518;2023-08-30T00:47:42;99052.41;;;30.40;41.07
65013;BME280;51715;39.432;-77.518;2023-08-30T00:50:10;99055.19;;;30.34;41.24
65013;BME280;51715;39.432;-77.518;2023-08-30T00:52:39;99052.76;;;30.54;41.06
65013;BME280;51715;39.432;-77.518;2023-08-30T00:55:09;99047.64;;;30.02;41.33
65013;BME280;51715;39.432;-77.518;2023-08-30T00:57:38;99044.92;;;30.27;41.35
65013;BME280;51715;39.432;-77.518;2023-08-30T01:00:07;99043.31;;;30.50;41.37
65013;BME280;51715;39.432;-77.518;2023-08-30T01:02:38;99046.44;;;30.50;41.48
65013;BME280;51715;39.432;-77.518;2023-08-30T01:05:08;99045.66;;;30.50;41.51
65013;BME280;51715;39.432;-77.518;2023-08-30T01:07:36;99046.54;;;30.56;41.33
65013;BME280;51715;39.432;-77.518;2023-08-30T01:10:05;99046.87;;;30.54;41.42
65013;BME280;51715;39.432;-77.518;2023-08-30T01:12:39;99048.95;;;30.50;41.42
65013;BME280;51715;39.432;-77.518;2023-08-30T01:15:11;99051.11;;;30.25;41.47
65013;BME280;51715;39.432;-77.518;2023-08-30T01:17:41;99052.43;;;29.73;41.48
65013;BME280;51715;39.432;-77.518;2023-08-30T01:20:10;99052.81;;;30.29;41.55
65013;BME280;51715;39.432;-77.518;2023-08-30T01:22:47;99055.04;;;30.47;41.54
65013;BME280;51715;39.432;-77.518;2023-08-30T01:25:27;99054.23;;;30.19;41.67
65013;BME280;51715;39.432;-77.518;2023-08-30T01:28:03;99047.08;;;30.38;41.69
65013;BME280;51715;39.432;-77.518;2023-08-30T01:30:33;99044.81;;;30.29;41.96
65013;BME280;51715;39.432;-77.518;2023-08-30T01:33:02;99042.61;;;30.30;41.93
65013;BME280;51715;39.432;-77.518;2023-08-30T01:35:33;99037.62;;;30.17;42.15
65013;BME280;51715;39.432;-77.518;2023-08-30T01:38:03;99033.13;;;30.26;42.01
65013;BME280;51715;39.432;-77.518;2023-08-30T01:40:43;99033.66;;;30.28;41.98
65013;BME280;51715;39.432;-77.518;2023-08-30T01:43:14;99030.38;;;30.20;41.99
65013;BME280;51715;39.432;-77.518;2023-08-30T01:45:44;99026.05;;;30.11;42.11
65013;BME280;51715;39.432;-77.518;2023-08-30T01:48:14;99034.33;;;30.16;41.91
65013;BME280;51715;39.432;-77.518;2023-08-30T01:50:44;99039.24;;;30.15;41.99
65013;BME280;51715;39.432;-77.518;2023-08-30T01:53:14;99035.70;;;29.93;42.00
65013;BME280;51715;39.432;-77.518;2023-08-30T01:55:43;99035.78;;;30.19;41.88
65013;BME280;51715;39.432;-77.518;2023-08-30T01:58:12;99035.76;;;30.00;41.75
65013;BME280;51715;39.432;-77.518;2023-08-30T02:00:41;99032.73;;;30.27;41.65
65013;BME280;51715;39.432;-77.518;2023-08-30T02:03:11;99032.47;;;30.10;41.65
65013;BME280;51715;39.432;-77.518;2023-08-30T02:05:49;99029.74;;;30.16;41.47
65013;BME280;51715;39.432;-77.518;2023-08-30T02:08:21;99028.38;;;30.37;41.55
65013;BME280;51715;39.432;-77.518;2023-08-30T02:10:55;99030.76;;;30.43;41.45
65013;BME280;51715;39.432;-77.518;2023-08-30T02:13:26;99029.11;;;30.48;41.24
65013;BME280;51715;39.432;-77.518;2023-08-30T02:15:59;99020.80;;;30.17;41.57
65013;BME280;51715;39.432;-77.518;2023-08-30T02:18:28;99012.75;;;30.36;41.82
65013;BME280;51715;39.432;-77.518;2023-08-30T02:20:58;99009.86;;;30.28;41.88
65013;BME280;51715;39.432;-77.518;2023-08-30T02:23:26;99011.69;;;30.28;41.82
65013;BME280;51715;39.432;-77.518;2023-08-30T02:25:55;99017.19;;;29.80;41.69
65013;BME280;51715;39.432;-77.518;2023-08-30T02:28:23;99018.87;;;30.30;41.65
65013;BME280;51715;39.432;-77.518;2023-08-30T02:30:54;99009.26;;;30.24;41.86
65013;BME280;51715;39.432;-77.518;2023-08-30T02:33:23;99009.80;;;30.14;41.93
65013;BME280;51715;39.432;-77.518;2023-08-30T02:35:52;99016.17;;;30.14;41.93
65013;BME280;51715;39.432;-77.518;2023-08-30T02:38:20;99021.92;;;30.11;42.49
65013;BME280;51715;39.432;-77.518;2023-08-30T02:40:47;99025.37;;;29.93;42.34
65013;BME280;51715;39.432;-77.518;2023-08-30T02:43:17;99020.86;;;29.94;42.30
65013;BME280;51715;39.432;-77.518;2023-08-30T02:45:45;99015.47;;;29.88;42.57
65013;BME280;51715;39.432;-77.518;2023-08-30T02:48:14;99010.55;;;29.89;42.51
65013;BME280;51715;39.432;-77.518;2023-08-30T02:50:43;99009.60;;;29.76;42.29
65013;BME280;51715;39.432;-77.518;2023-08-30T02:53:10;99015.21;;;30.08;42.06
65013;BME280;51715;39.432;-77.518;2023-08-30T02:55:39;99021.63;;;29.88;42.10
65013;BME280;51715;39.432;-77.518;2023-08-30T02:58:08;99021.67;;;29.88;42.05
65013;BME280;51715;39.432;-77.518;2023-08-30T03:00:37;99016.77;;;29.99;42.19
65013;BME280;51715;39.432;-77.518;2023-08-30T03:03:05;99013.26;;;29.91;42.45
65013;BME280;51715;39.432;-77.518;2023-08-30T03:05:33;99006.97;;;29.88;42.53
65013;BME280;51715;39.432;-77.518;2023-08-30T03:08:03;99000.52;;;29.80;42.56
65013;BME280;51715;39.432;-77.518;2023-08-30T03:10:31;99001.03;;;29.74;42.76
65013;BME280;51715;39.432;-77.518;2023-08-30T03:13:00;99003.54;;;29.73;42.61
65013;BME280;51715;39.432;-77.518;2023-08-30T03:15:27;99005.55;;;29.74;42.63
65013;BME280;51715;39.432;-77.518;2023-08-30T03:17:55;99005.26;;;29.79;42.72
65013;BME280;51715;39.432;-77.518;2023-08-30T03:20:23;99000.90;;;29.81;42.59
65013;BME280;51715;39.432;-77.518;2023-08-30T03:22:52;98997.87;;;29.77;42.74
65013;BME280;51715;39.432;-77.518;2023-08-30T03:25:20;98991.28;;;29.76;42.86
65013;BME280;51715;39.432;-77.518;2023-08-30T03:27:48;98986.15;;;29.69;42.85
65013;BME280;51715;39.432;-77.518;2023-08-30T03:30:17;98984.87;;;29.68;42.88
65013;BME280;51715;39.432;-77.518;2023-08-30T03:32:45;98985.50;;;29.69;42.79
65013;BME280;51715;39.432;-77.518;2023-08-30T03:35:15;98984.38;;;29.68;42.85
65013;BME280;51715;39.432;-77.518;2023-08-30T03:37:43;98986.01;;;29.58;43.02
65013;BME280;51715;39.432;-77.518;2023-08-30T03:40:12;98981.99;;;29.73;43.22
65013;BME280;51715;39.432;-77.518;2023-08-30T03:42:40;98980.55;;;29.56;43.18
65013;BME280;51715;39.432;-77.518;2023-08-30T03:45:09;98981.87;;;29.64;43.10
65013;BME280;51715;39.432;-77.518;2023-08-30T03:47:37;98980.87;;;29.61;43.11
65013;BME280;51715;39.432;-77.518;2023-08-30T03:50:06;98975.15;;;29.59;43.01
65013;BME280;51715;39.432;-77.518;2023-08-30T03:52:34;98975.05;;;29.75;43.30
65013;BME280;51715;39.432;-77.518;2023-08-30T03:55:03;98976.61;;;29.55;43.30
65013;BME280;51715;39.432;-77.518;2023-08-30T03:57:31;98972.68;;;29.74;43.15
65013;BME280;51715;39.432;-77.518;2023-08-30T03:59:59;98970.33;;;29.71;43.21
65013;BME280;51715;39.432;-77.518;2023-08-30T04:04:04;98965.80;;;29.51;42.49
65013;BME280;51715;39.432;-77.518;2023-08-30T04:06:32;98963.01;;;29.11;42.34
65013;BME280;51715;39.432;-77.518;2023-08-30T04:09:00;98957.23;;;29.63;42.18
65013;BME280;51715;39.432;-77.518;2023-08-30T04:11:29;98958.03;;;29.94;42.08
65013;BME280;51715;39.432;-77.518;2023-08-30T04:13:57;98959.35;;;29.90;42.51
65013;BME280;51715;39.432;-77.518;2023-08-30T04:16:26;98954.80;;;29.74;42.85
65013;BME280;51715;39.432;-77.518;2023-08-30T04:18:54;98952.45;;;29.61;43.00
65013;BME280;51715;39.432;-77.518;2023-08-30T04:21:22;98947.85;;;29.56;43.04
65013;BME280;51715;39.432;-77.518;2023-08-30T04:23:51;98949.02;;;29.97;43.16
65013;BME280;51715;39.432;-77.518;2023-08-30T04:26:19;98944.20;;;29.51;43.14
65013;BME280;51715;39.432;-77.518;2023-08-30T04:28:47;98936.52;;;29.71;43.18
65013;BME280;51715;39.432;-77.518;2023-08-30T04:31:15;98938.41;;;29.67;43.24
65013;BME280;51715;39.432;-77.518;2023-08-30T04:33:43;98938.82;;;29.40;43.31
65013;BME280;51715;39.432;-77.518;2023-08-30T04:36:12;98939.36;;;29.29;43.56
65013;BME280;51715;39.432;-77.518;2023-08-30T04:38:40;98940.01;;;29.34;43.47
65013;BME280;51715;39.432;-77.518;2023-08-30T04:41:07;98938.69;;;29.49;43.66
65013;BME280;51715;39.432;-77.518;2023-08-30T04:43:35;98934.87;;;29.32;43.53
65013;BME280;51715;39.432;-77.518;2023-08-30T04:46:03;98936.83;;;29.25;44.24
65013;BME280;51715;39.432;-77.518;2023-08-30T04:48:30;98941.39;;;29.34;43.99
65013;BME280;51715;39.432;-77.518;2023-08-30T04:51:06;98940.59;;;29.36;43.96
65013;BME280;51715;39.432;-77.518;2023-08-30T04:53:34;98940.97;;;29.24;43.79
65013;BME280;51715;39.432;-77.518;2023-08-30T04:56:10;98940.00;;;29.36;43.62
65013;BME280;51715;39.432;-77.518;2023-08-30T04:58:39;98936.21;;;29.31;43.84
65013;BME280;51715;39.432;-77.518;2023-08-30T05:01:07;98930.89;;;29.30;43.82
65013;BME280;51715;39.432;-77.518;2023-08-30T05:03:35;98929.70;;;29.33;43.81
65013;BME280;51715;39.432;-77.518;2023-08-30T05:06:03;98930.38;;;29.32;43.88
65013;BME280;51715;39.432;-77.518;2023-08-30T05:08:32;98926.30;;;29.34;44.00
65013;BME280;51715;39.432;-77.518;2023-08-30T05:11:01;98928.85;;;29.43;43.80
65013;BME280;51715;39.432;-77.518;2023-08-30T05:13:28;98922.83;;;29.43;43.79
65013;BME280;51715;39.432;-77.518;2023-08-30T05:15:57;98920.84;;;29.48;43.81
65013;BME280;51715;39.432;-77.518;2023-08-30T05:18:25;98915.53;;;29.79;43.59
65013;BME280;51715;39.432;-77.518;2023-08-30T05:20:53;98912.13;;;29.65;43.43
65013;BME280;51715;39.432;-77.518;2023-08-30T05:23:21;98906.90;;;30.10;43.56
65013;BME280;51715;39.432;-77.518;2023-08-30T05:25:49;98903.09;;;29.60;43.65
65013;BME280;51715;39.432;-77.518;2023-08-30T05:28:17;98895.50;;;29.80;43.63
65013;BME280;51715;39.432;-77.518;2023-08-30T05:30:45;98888.79;;;29.55;43.74
65013;BME280;51715;39.432;-77.518;2023-08-30T05:33:13;98879.32;;;29.50;43.91
65013;BME280;51715;39.432;-77.518;2023-08-30T05:35:42;98872.80;;;29.42;43.98
65013;BME280;51715;39.432;-77.518;2023-08-30T05:38:10;98865.07;;;29.29;44.17
65013;BME280;51715;39.432;-77.518;2023-08-30T05:40:39;98863.69;;;29.30;44.03
65013;BME280;51715;39.432;-77.518;2023-08-30T05:43:07;98857.36;;;29.82;43.93
65013;BME280;51715;39.432;-77.518;2023-08-30T05:45:34;98853.54;;;29.37;43.87
65013;BME280;51715;39.432;-77.518;2023-08-30T05:48:05;98847.30;;;29.87;43.92
65013;BME280;51715;39.432;-77.518;2023-08-30T05:50:33;98844.44;;;29.75;44.22
65013;BME280;51715;39.432;-77.518;2023-08-30T05:53:02;98838.69;;;29.25;44.29
65013;BME280;51715;39.432;-77.518;2023-08-30T05:55:30;98837.91;;;29.26;44.30
65013;BME280;51715;39.432;-77.518;2023-08-30T05:57:58;98833.72;;;29.49;44.36
65013;BME280;51715;39.432;-77.518;2023-08-30T06:00:26;98837.36;;;29.59;44.16
65013;BME280;51715;39.432;-77.518;2023-08-30T06:02:54;98837.51;;;29.41;43.98
65013;BME280;51715;39.432;-77.518;2023-08-30T06:05:22;98836.95;;;29.42;43.99
65013;BME280;51715;39.432;-77.518;2023-08-30T06:07:51;98835.82;;;29.45;43.98
65013;BME280;51715;39.432;-77.518;2023-08-30T06:10:20;98832.18;;;29.42;44.09
65013;BME280;51715;39.432;-77.518;2023-08-30T06:12:48;98824.46;;;29.94;44.07
65013;BME280;51715;39.432;-77.518;2023-08-30T06:15:17;98822.39;;;29.47;44.09
65013;BME280;51715;39.432;-77.518;2023-08-30T06:17:45;98822.41;;;29.51;44.01
65013;BME280;51715;39.432;-77.518;2023-08-30T06:20:13;98820.40;;;29.55;43.88
65013;BME280;51715;39.432;-77.518;2023-08-30T06:22:41;98821.00;;;29.87;43.86
65013;BME280;51715;39.432;-77.518;2023-08-30T06:25:09;98820.13;;;29.70;43.75
65013;BME280;51715;39.432;-77.518;2023-08-30T06:27:42;98813.99;;;29.76;43.52
65013;BME280;51715;39.432;-77.518;2023-08-30T06:30:11;98803.31;;;29.80;43.37
65013;BME280;51715;39.432;-77.518;2023-08-30T06:32:39;98796.98;;;29.76;43.65
65013;BME280;51715;39.432;-77.518;2023-08-30T06:35:08;98792.09;;;29.49;43.63
65013;BME280;51715;39.432;-77.518;2023-08-30T06:37:35;98787.84;;;29.65;43.79
65013;BME280;51715;39.432;-77.518;2023-08-30T06:40:05;98788.96;;;29.62;43.85
65013;BME280;51715;39.432;-77.518;2023-08-30T06:42:33;98785.37;;;29.58;43.89
65013;BME280;51715;39.432;-77.518;2023-08-30T06:45:02;98785.31;;;29.58;43.91
65013;BME280;51715;39.432;-77.518;2023-08-30T06:47:30;98783.15;;;29.52;44.20
65013;BME280;51715;39.432;-77.518;2023-08-30T06:50:00;98778.31;;;29.55;44.10
65013;BME280;51715;39.432;-77.518;2023-08-30T06:52:28;98782.21;;;29.98;44.10
65013;BME280;51715;39.432;-77.518;2023-08-30T06:54:57;98786.62;;;29.48;44.06
65013;BME280;51715;39.432;-77.518;2023-08-30T06:57:25;98782.07;;;29.27;44.00
65013;BME280;51715;39.432;-77.518;2023-08-30T06:59:54;98781.48;;;29.52;44.07
65013;BME280;51715;39.432;-77.518;2023-08-30T07:02:23;98783.39;;;29.78;43.94
65013;BME280;51715;39.432;-77.518;2023-08-30T07:04:50;98781.25;;;29.61;43.72
65013;BME280;51715;39.432;-77.518;2023-08-30T07:07:18;98779.10;;;29.59;43.78
65013;BME280;51715;39.432;-77.518;2023-08-30T07:09:46;98774.87;;;29.55;43.82
65013;BME280;51715;39.432;-77.518;2023-08-30T07:12:15;98768.78;;;29.54;43.91
65013;BME280;51715;39.432;-77.518;2023-08-30T07:14:43;98764.28;;;29.57;44.04
65013;BME280;51715;39.432;-77.518;2023-08-30T07:17:11;98763.82;;;29.59;44.08
65013;BME280;51715;39.432;-77.518;2023-08-30T07:19:39;98767.90;;;30.05;44.06
65013;BME280;51715;39.432;-77.518;2023-08-30T07:22:07;98770.39;;;29.45;44.36
65013;BME280;51715;39.432;-77.518;2023-08-30T07:24:35;98769.13;;;29.44;44.39
65013;BME280;51715;39.432;-77.518;2023-08-30T07:27:04;98767.06;;;29.67;44.36
65013;BME280;51715;39.432;-77.518;2023-08-30T07:29:32;98767.35;;;29.45;44.30
65013;BME280;51715;39.432;-77.518;2023-08-30T07:32:00;98767.40;;;29.44;44.25
65013;BME280;51715;39.432;-77.518;2023-08-30T07:34:29;98762.55;;;29.49;44.25
65013;BME280;51715;39.432;-77.518;2023-08-30T07:36:57;98759.56;;;29.53;44.03
65013;BME280;51715;39.432;-77.518;2023-08-30T07:39:25;98764.77;;;29.44;44.16
65013;BME280;51715;39.432;-77.518;2023-08-30T07:41:54;98764.38;;;29.39;44.27
65013;BME280;51715;39.432;-77.518;2023-08-30T07:44:22;98763.10;;;29.35;44.28
65013;BME280;51715;39.432;-77.518;2023-08-30T07:46:50;98757.67;;;29.34;44.33
65013;BME280;51715;39.432;-77.518;2023-08-30T07:49:19;98752.98;;;29.27;44.45
65013;BME280;51715;39.432;-77.518;2023-08-30T07:51:47;98750.12;;;29.23;44.55
65013;BME280;51715;39.432;-77.518;2023-08-30T07:54:16;98754.58;;;29.46;44.63
65013;BME280;51715;39.432;-77.518;2023-08-30T07:56:44;98754.00;;;29.51;44.58
65013;BME280;51715;39.432;-77.518;2023-08-30T07:59:13;98759.02;;;29.29;44.46
65013;BME280;51715;39.432;-77.518;2023-08-30T08:01:41;98758.59;;;29.28;44.48
65013;BME280;51715;39.432;-77.518;2023-08-30T08:04:09;98760.65;;;29.27;44.41
65013;BME280;51715;39.432;-77.518;2023-08-30T08:06:37;98760.43;;;29.78;44.43
65013;BME280;51715;39.432;-77.518;2023-08-30T08:09:06;98753.82;;;29.33;44.38
65013;BME280;51715;39.432;-77.518;2023-08-30T08:11:34;98750.97;;;29.55;44.45
65013;BME280;51715;39.432;-77.518;2023-08-30T08:14:02;98752.09;;;29.34;44.63
65013;BME280;51715;39.432;-77.518;2023-08-30T08:16:30;98754.32;;;29.35;44.50
65013;BME280;51715;39.432;-77.518;2023-08-30T08:18:58;98757.28;;;29.71;44.72
65013;BME280;51715;39.432;-77.518;2023-08-30T08:21:27;98754.65;;;29.27;45.15
65013;BME280;51715;39.432;-77.518;2023-08-30T08:23:55;98755.85;;;28.81;45.77
65013;BME280;51715;39.432;-77.518;2023-08-30T08:26:23;98759.83;;;28.97;46.69
65013;BME280;51715;39.432;-77.518;2023-08-30T08:28:51;98749.54;;;28.42;47.68
65013;BME280;51715;39.432;-77.518;2023-08-30T08:31:18;98749.43;;;28.49;48.29
65013;BME280;51715;39.432;-77.518;2023-08-30T08:33:49;98743.07;;;28.25;48.71
65013;BME280;51715;39.432;-77.518;2023-08-30T08:36:17;98740.64;;;28.06;49.36
65013;BME280;51715;39.432;-77.518;2023-08-30T08:38:45;98739.16;;;28.02;49.60
65013;BME280;51715;39.432;-77.518;2023-08-30T08:41:15;98738.90;;;28.29;49.72
65013;BME280;51715;39.432;-77.518;2023-08-30T08:43:43;98732.10;;;27.77;49.78
65013;BME280;51715;39.432;-77.518;2023-08-30T08:46:14;98733.47;;;27.74;49.87
65013;BME280;51715;39.432;-77.518;2023-08-30T08:48:43;98735.53;;;27.74;49.91
65013;BME280;51715;39.432;-77.518;2023-08-30T08:51:13;98741.74;;;27.76;49.93
65013;BME280;51715;39.432;-77.518;2023-08-30T08:53:42;98750.54;;;27.97;49.85
65013;BME280;51715;39.432;-77.518;2023-08-30T08:56:10;98750.46;;;27.92;49.96
65013;BME280;51715;39.432;-77.518;2023-08-30T08:58:39;98751.56;;;27.89;50.04
65013;BME280;51715;39.432;-77.518;2023-08-30T09:01:08;98749.37;;;28.18;50.11
65013;BME280;51715;39.432;-77.518;2023-08-30T09:03:36;98748.19;;;27.97;50.00
65013;BME280;51715;39.432;-77.518;2023-08-30T09:06:05;98748.36;;;27.99;49.91
65013;BME280;51715;39.432;-77.518;2023-08-30T09:08:34;98746.37;;;28.02;49.81
65013;BME280;51715;39.432;-77.518;2023-08-30T09:11:02;98737.94;;;27.81;49.75
65013;BME280;51715;39.432;-77.518;2023-08-30T09:13:29;98736.24;;;28.04;49.72
65013;BME280;51715;39.432;-77.518;2023-08-30T09:15:57;98734.72;;;28.07;49.58
65013;BME280;51715;39.432;-77.518;2023-08-30T09:18:26;98735.84;;;28.37;49.36
65013;BME280;51715;39.432;-77.518;2023-08-30T09:21:04;98730.29;;;28.11;49.32
65013;BME280;51715;39.432;-77.518;2023-08-30T09:23:33;98727.95;;;28.34;49.30
65013;BME280;51715;39.432;-77.518;2023-08-30T09:26:01;98726.60;;;28.04;49.22
65013;BME280;51715;39.432;-77.518;2023-08-30T09:28:30;98728.51;;;28.28;49.22
65013;BME280;51715;39.432;-77.518;2023-08-30T09:30:59;98729.49;;;27.79;49.00
65013;BME280;51715;39.432;-77.518;2023-08-30T09:33:32;98733.37;;;27.81;49.25
65013;BME280;51715;39.432;-77.518;2023-08-30T09:36:01;98734.44;;;28.06;49.35
65013;BME280;51715;39.432;-77.518;2023-08-30T09:38:29;98733.85;;;28.08;49.48
65013;BME280;51715;39.432;-77.518;2023-08-30T09:41:04;98738.11;;;28.07;49.28
65013;BME280;51715;39.432;-77.518;2023-08-30T09:43:33;98733.95;;;27.98;49.14
65013;BME280;51715;39.432;-77.518;2023-08-30T09:46:04;98737.21;;;27.82;49.45
65013;BME280;51715;39.432;-77.518;2023-08-30T09:48:32;98736.35;;;27.79;49.37
65013;BME280;51715;39.432;-77.518;2023-08-30T09:51:02;98740.38;;;27.78;49.33
65013;BME280;51715;39.432;-77.518;2023-08-30T09:53:35;98747.31;;;27.79;49.29
65013;BME280;51715;39.432;-77.518;2023-08-30T09:56:05;98748.37;;;27.52;49.26
65013;BME280;51715;39.432;-77.518;2023-08-30T09:58:34;98745.74;;;27.45;49.30
65013;BME280;51715;39.432;-77.518;2023-08-30T10:01:02;98743.33;;;27.67;49.20
65013;BME280;51715;39.432;-77.518;2023-08-30T10:03:31;98741.89;;;27.65;49.17
65013;BME280;51715;39.432;-77.518;2023-08-30T10:05:59;98737.73;;;27.27;49.35
65013;BME280;51715;39.432;-77.518;2023-08-30T10:08:30;98747.78;;;27.17;49.44
65013;BME280;51715;39.432;-77.518;2023-08-30T10:11:00;98756.15;;;27.45;49.41
65013;BME280;51715;39.432;-77.518;2023-08-30T10:13:29;98760.80;;;27.37;49.37
65013;BME280;51715;39.432;-77.518;2023-08-30T10:16:01;98766.53;;;27.16;49.50
65013;BME280;51715;39.432;-77.518;2023-08-30T10:18:31;98757.45;;;27.14;49.50
65013;BME280;51715;39.432;-77.518;2023-08-30T10:20:59;98755.56;;;27.71;49.47
65013;BME280;51715;39.432;-77.518;2023-08-30T10:23:30;98760.56;;;27.18;49.43
65013;BME280;51715;39.432;-77.518;2023-08-30T10:25:59;98768.62;;;27.23;49.28
65013;BME280;51715;39.432;-77.518;2023-08-30T10:28:29;98769.50;;;27.47;49.13
65013;BME280;51715;39.432;-77.518;2023-08-30T10:31:02;98777.47;;;27.46;48.95
65013;BME280;51715;39.432;-77.518;2023-08-30T10:33:31;98781.93;;;27.21;48.65
65013;BME280;51715;39.432;-77.518;2023-08-30T10:36:05;98780.58;;;27.18;48.64
65013;BME280;51715;39.432;-77.518;2023-08-30T10:38:34;98784.47;;;27.15;48.76
65013;BME280;51715;39.432;-77.518;2023-08-30T10:41:08;98783.91;;;27.56;48.59
65013;BME280;51715;39.432;-77.518;2023-08-30T10:43:36;98781.76;;;27.51;48.49
65013;BME280;51715;39.432;-77.518;2023-08-30T10:46:05;98780.71;;;26.95;48.65
65013;BME280;51715;39.432;-77.518;2023-08-30T10:48:37;98782.74;;;27.09;48.74
65013;BME280;51715;39.432;-77.518;2023-08-30T10:51:19;98785.13;;;26.82;48.63
65013;BME280;51715;39.432;-77.518;2023-08-30T10:54:12;98791.54;;;26.77;48.75
65013;BME280;51715;39.432;-77.518;2023-08-30T10:56:48;98793.04;;;27.02;48.67
65013;BME280;51715;39.432;-77.518;2023-08-30T10:59:23;98796.60;;;26.76;48.58
65013;BME280;51715;39.432;-77.518;2023-08-30T11:01:52;98796.17;;;27.18;48.66
65013;BME280;51715;39.432;-77.518;2023-08-30T11:04:20;98800.80;;;26.71;48.77
65013;BME280;51715;39.432;-77.518;2023-08-30T11:06:51;98810.33;;;26.93;48.71
65013;BME280;51715;39.432;-77.518;2023-08-30T11:09:25;98810.17;;;26.91;48.67
65013;BME280;51715;39.432;-77.518;2023-08-30T11:11:54;98819.68;;;26.90;48.63
65013;BME280;51715;39.432;-77.518;2023-08-30T11:14:22;98823.37;;;26.91;48.66
65013;BME280;51715;39.432;-77.518;2023-08-30T11:16:50;98817.54;;;27.15;48.69
65013;BME280;51715;39.432;-77.518;2023-08-30T11:19:18;98825.14;;;27.14;48.66
65013;BME280;51715;39.432;-77.518;2023-08-30T11:21:46;98824.57;;;26.67;48.60
65013;BME280;51715;39.432;-77.518;2023-08-30T11:24:16;98831.93;;;26.65;48.77
65013;BME280;51715;39.432;-77.518;2023-08-30T11:26:45;98839.97;;;26.67;48.76
65013;BME280;51715;39.432;-77.518;2023-08-30T11:29:14;98847.03;;;27.13;48.80
65013;BME280;51715;39.432;-77.518;2023-08-30T11:31:42;98846.39;;;26.92;48.65
65013;BME280;51715;39.432;-77.518;2023-08-30T11:34:12;98846.40;;;26.93;48.54
65013;BME280;51715;39.432;-77.518;2023-08-30T11:36:41;98846.35;;;27.13;48.61
65013;BME280;51715;39.432;-77.518;2023-08-30T11:39:10;98842.63;;;26.91;48.69
65013;BME280;51715;39.432;-77.518;2023-08-30T11:41:39;98858.81;;;26.52;48.72
65013;BME280;51715;39.432;-77.518;2023-08-30T11:44:09;98866.31;;;26.96;48.53
65013;BME280;51715;39.432;-77.518;2023-08-30T11:46:37;98872.59;;;26.91;48.41
65013;BME280;51715;39.432;-77.518;2023-08-30T11:49:06;98871.11;;;26.31;48.34
65013;BME280;51715;39.432;-77.518;2023-08-30T11:51:34;98873.53;;;26.47;48.45
65013;BME280;51715;39.432;-77.518;2023-08-30T11:54:03;98881.63;;;26.77;47.97
65013;BME280;51715;39.432;-77.518;2023-08-30T11:56:31;98884.81;;;26.76;48.02
65013;BME280;51715;39.432;-77.518;2023-08-30T11:58:59;98884.81;;;26.75;48.08
65013;BME280;51715;39.432;-77.518;2023-08-30T12:01:27;98883.62;;;26.49;48.24
65013;BME280;51715;39.432;-77.518;2023-08-30T12:03:57;98884.89;;;26.74;48.30
65013;BME280;51715;39.432;-77.518;2023-08-30T12:06:25;98886.82;;;26.67;47.90
65013;BME280;51715;39.432;-77.518;2023-08-30T12:08:58;98890.56;;;26.42;48.23
65013;BME280;51715;39.432;-77.518;2023-08-30T12:11:26;98898.05;;;26.47;48.02
65013;BME280;51715;39.432;-77.518;2023-08-30T12:14:02;98906.10;;;26.53;47.92
65013;BME280;51715;39.432;-77.518;2023-08-30T12:16:30;98909.21;;;26.55;48.04
65013;BME280;51715;39.432;-77.518;2023-08-30T12:19:08;98911.98;;;26.40;48.01
65013;BME280;51715;39.432;-77.518;2023-08-30T12:21:40;98910.89;;;26.92;47.90
65013;BME280;51715;39.432;-77.518;2023-08-30T12:24:09;98909.01;;;26.97;48.12
65013;BME280;51715;39.432;-77.518;2023-08-30T12:26:37;98904.24;;;27.12;47.73
65013;BME280;51715;39.432;-77.518;2023-08-30T12:29:06;98901.94;;;27.03;47.75
65013;BME280;51715;39.432;-77.518;2023-08-30T12:31:35;98902.91;;;27.07;47.30
65013;BME280;51715;39.432;-77.518;2023-08-30T12:34:03;98905.39;;;26.86;47.10
65013;BME280;51715;39.432;-77.518;2023-08-30T12:36:31;98909.24;;;27.10;47.04
65013;BME280;51715;39.432;-77.518;2023-08-30T12:39:00;98911.24;;;26.67;47.19
65013;BME280;51715;39.432;-77.518;2023-08-30T12:41:28;98909.31;;;26.66;46.81
65013;BME280;51715;39.432;-77.518;2023-08-30T12:43:56;98910.52;;;26.63;45.70
65013;BME280;51715;39.432;-77.518;2023-08-30T12:46:26;98916.12;;;26.87;46.11
65013;BME280;51715;39.432;-77.518;2023-08-30T12:48:54;98918.23;;;26.49;46.50
65013;BME280;51715;39.432;-77.518;2023-08-30T12:51:23;98923.49;;;26.63;46.41